Archival Weather

Yakutsk

Yakutsk, Russia (UEEE)

Report from: Monday, February 6, 2023 1:30 AM JST
Current time: Tuesday, February 27, 2024 7:44 PM JST

Current weather – Weather history – Daily summaries
Weather forecast

Present weatherLight snow, mist
Temperature-38.0°C (-36.4°F)
Wind chill-46.7°C (-52.1°F)
Dew point-42.0°C (-43.6°F)
Winds 3.9 kts (2 m/s, 4.5 mph) West-Northwest (300°)
Visibility2 mi. (3.2 km)
Altimeter30.15 in.Hg (1021 mB)
Precip. events QF 3:37 AM
Relative humidity66 %
Density altitude-7,365 ft. (-2,245 m)
Remarks No significant changes expected in the next two hours
Flight conditions Instrument Meteorological Conditions
Raw dataUEEE 051630Z 30002MPS 3200 -SN BR NSC M38/M42 Q1021 R23L/490150 NOSIG RMK QFE757
An error has occurred. This application may no longer respond until reloaded. Reload 🗙